Time;durP1;ratioP1;P1;durP2;ratioP2;P2;SDS_P1;SDS_P2;PMS_P1;PMS_P2;Temp;Humidity;BMP_temperature;BMP_pressure;BME280_temperature;BME280_humidity;BME280_pressure;Samples;Min_cycle;Max_cycle;Signal;HPM_P1;HPM_P2
2022/05/03 00:00:27;;;;;;;0.00;0.00;;;;;;;;;;1744665;28;20205;-76
2022/05/03 00:01:24;;;;;;;0.00;0.00;;;;;;;;;;1745103;28;20608;-76
2022/05/03 00:02:20;;;;;;;0.00;0.00;;;;;;;;;;1746474;28;20592;-76
2022/05/03 00:03:14;;;;;;;0.00;0.00;;;;;;;;;;1746084;28;20654;-77
2022/05/03 00:04:07;;;;;;;0.00;0.00;;;;;;;;;;1745745;28;20211;-76
2022/05/03 00:05:04;;;;;;;0.00;0.00;;;;;;;;;;1748199;28;20260;-76
2022/05/03 00:06:01;;;;;;;0.00;0.00;;;;;;;;;;1746068;28;21000;-77
2022/05/03 00:06:58;;;;;;;0.00;0.00;;;;;;;;;;1747822;28;20529;-77
2022/05/03 00:07:56;;;;;;;0.00;0.00;;;;;;;;;;1747565;28;20198;-77
2022/05/03 00:08:50;;;;;;;0.00;0.00;;;;;;;;;;1748483;28;20212;-77
2022/05/03 00:09:45;;;;;;;0.00;0.00;;;;;;;;;;1747037;28;20512;-77
2022/05/03 00:10:41;;;;;;;0.00;0.00;;;;;;;;;;1745491;28;20364;-77
2022/05/03 00:11:33;;;;;;;0.00;0.00;;;;;;;;;;1748311;28;20201;-77
2022/05/03 00:12:28;;;;;;;0.00;0.00;;;;;;;;;;1747110;28;20202;-77
2022/05/03 00:13:22;;;;;;;0.00;0.00;;;;;;;;;;1748287;28;20194;-77
2022/05/03 00:14:18;;;;;;;0.00;0.00;;;;;;;;;;1747752;28;20214;-77
2022/05/03 00:15:10;;;;;;;0.00;0.00;;;;;;;;;;1748382;28;20215;-77
2022/05/03 00:16:02;;;;;;;0.00;0.00;;;;;;;;;;1745096;28;20222;-77
2022/05/03 00:16:53;;;;;;;0.00;0.00;;;;;;;;;;1747445;28;20209;-77
2022/05/03 00:17:47;;;;;;;0.00;0.00;;;;;;;;;;1747520;28;20202;-77
2022/05/03 00:18:38;;;;;;;0.00;0.00;;;;;;;;;;1748069;28;20210;-77
2022/05/03 00:19:31;;;;;;;0.00;0.00;;;;;;;;;;1747891;28;20289;-78
2022/05/03 00:20:25;;;;;;;0.00;0.00;;;;;;;;;;1745842;28;20799;-77
2022/05/03 00:21:17;;;;;;;0.00;0.00;;;;;;;;;;1747584;28;20206;-76
2022/05/03 00:22:08;;;;;;;0.00;0.00;;;;;;;;;;1748087;28;20780;-76
2022/05/03 00:23:01;;;;;;;0.00;0.00;;;;;;;;;;1746523;28;20212;-76
2022/05/03 00:23:53;;;;;;;0.00;0.00;;;;;;;;;;1747954;28;20210;-76
2022/05/03 00:24:45;;;;;;;0.00;0.00;;;;;;;;;;1747662;28;20293;-76
2022/05/03 00:25:38;;;;;;;0.00;0.00;;;;;;;;;;1746037;28;20260;-75
2022/05/03 00:26:31;;;;;;;0.00;0.00;;;;;;;;;;1747323;28;20233;-76
2022/05/03 00:27:24;;;;;;;0.00;0.00;;;;;;;;;;1747326;28;20202;-76
2022/05/03 00:28:17;;;;;;;0.00;0.00;;;;;;;;;;1744441;28;20203;-76
2022/05/03 00:29:08;;;;;;;0.00;0.00;;;;;;;;;;1746172;28;20202;-76
2022/05/03 00:30:00;;;;;;;0.00;0.00;;;;;;;;;;1747574;28;20510;-76
2022/05/03 00:30:52;;;;;;;0.00;0.00;;;;;;;;;;1745598;28;20233;-77
2022/05/03 00:31:46;;;;;;;0.00;0.00;;;;;;;;;;1748164;28;20502;-77
2022/05/03 00:32:39;;;;;;;0.00;0.00;;;;;;;;;;1747383;28;20248;-77
2022/05/03 00:33:33;;;;;;;0.00;0.00;;;;;;;;;;1748063;28;20280;-77
2022/05/03 00:34:25;;;;;;;0.00;0.00;;;;;;;;;;1747328;28;20684;-77
2022/05/03 00:35:18;;;;;;;0.00;0.00;;;;;;;;;;1745063;28;20686;-77
2022/05/03 00:36:10;;;;;;;0.00;0.00;;;;;;;;;;1747700;28;20194;-77
2022/05/03 00:37:03;;;;;;;0.00;0.00;;;;;;;;;;1747603;28;20575;-77
2022/05/03 00:37:54;;;;;;;0.00;0.00;;;;;;;;;;1747652;28;20620;-77
2022/05/03 00:38:46;;;;;;;0.00;0.00;;;;;;;;;;1748158;28;20271;-77
2022/05/03 00:39:37;;;;;;;0.00;0.00;;;;;;;;;;1741529;28;20211;-77
2022/05/03 00:40:30;;;;;;;0.00;0.00;;;;;;;;;;1743570;28;20315;-77
2022/05/03 00:41:28;;;;;;;0.00;0.00;;;;;;;;;;1746900;28;20206;-77
2022/05/03 00:42:21;;;;;;;0.00;0.00;;;;;;;;;;1747273;28;20193;-77
2022/05/03 00:43:15;;;;;;;0.00;0.00;;;;;;;;;;1747732;28;20206;-76
2022/05/03 00:44:55;;;;;;;0.00;0.00;;;;;;;;;;1746405;28;20285;-76
2022/05/03 00:45:27;;;;;;;0.00;0.00;;;;;;;;;;1742481;28;20238;-76
2022/05/03 00:46:22;;;;;;;0.00;0.00;;;;;;;;;;1747746;28;20194;-76
2022/05/03 00:47:15;;;;;;;0.00;0.00;;;;;;;;;;1747689;28;20632;-76
2022/05/03 00:48:12;;;;;;;0.00;0.00;;;;;;;;;;1747071;28;20226;-76
2022/05/03 00:49:13;;;;;;;0.00;0.00;;;;;;;;;;1746630;28;20267;-76
2022/05/03 00:50:07;;;;;;;0.00;0.00;;;;;;;;;;1739647;28;20201;-76
2022/05/03 00:51:04;;;;;;;0.00;0.00;;;;;;;;;;1745879;28;20237;-76
2022/05/03 00:52:02;;;;;;;0.00;0.00;;;;;;;;;;1748146;28;20198;-76
2022/05/03 00:52:56;;;;;;;0.00;0.00;;;;;;;;;;1748655;28;20195;-76
2022/05/03 00:53:54;;;;;;;0.00;0.00;;;;;;;;;;1740795;28;20203;-76
2022/05/03 00:54:49;;;;;;;0.00;0.00;;;;;;;;;;1740158;28;20695;-76
2022/05/03 00:55:59;;;;;;;0.00;0.00;;;;;;;;;;1744478;28;20250;-76
2022/05/03 00:57:01;;;;;;;0.00;0.00;;;;;;;;;;1746404;28;20633;-76
2022/05/03 00:58:02;;;;;;;0.00;0.00;;;;;;;;;;1747800;28;20448;-76
2022/05/03 00:59:02;;;;;;;0.00;0.00;;;;;;;;;;1748064;28;20247;-77
2022/05/03 01:00:03;;;;;;;0.00;0.00;;;;;;;;;;1747220;28;20209;-77
2022/05/03 01:00:56;;;;;;;0.00;0.00;;;;;;;;;;1745632;28;20594;-77
2022/05/03 01:01:55;;;;;;;0.00;0.00;;;;;;;;;;1746717;28;20230;-76
2022/05/03 01:02:56;;;;;;;0.00;0.00;;;;;;;;;;1747521;28;20203;-76
2022/05/03 01:03:57;;;;;;;0.00;0.00;;;;;;;;;;1745043;28;20664;-77
2022/05/03 01:04:53;;;;;;;0.00;0.00;;;;;;;;;;1740779;28;20202;-76
2022/05/03 01:05:56;;;;;;;0.00;0.00;;;;;;;;;;1745546;28;20236;-76
2022/05/03 01:06:52;;;;;;;0.00;0.00;;;;;;;;;;1744686;28;20213;-76
2022/05/03 01:07:48;;;;;;;0.00;0.00;;;;;;;;;;1747177;28;20556;-77
2022/05/03 01:08:45;;;;;;;0.00;0.00;;;;;;;;;;1747652;28;20213;-76
2022/05/03 01:09:40;;;;;;;0.00;0.00;;;;;;;;;;1747547;28;20245;-76
2022/05/03 01:10:33;;;;;;;0.00;0.00;;;;;;;;;;1745923;28;20731;-76
2022/05/03 01:11:32;;;;;;;0.00;0.00;;;;;;;;;;1747760;28;20686;-76
2022/05/03 01:12:24;;;;;;;0.00;0.00;;;;;;;;;;1746960;28;20190;-76
2022/05/03 01:13:21;;;;;;;0.00;0.00;;;;;;;;;;1743112;28;20541;-76
2022/05/03 01:14:22;;;;;;;0.00;0.00;;;;;;;;;;1747077;28;20725;-76
2022/05/03 01:15:18;;;;;;;0.00;0.00;;;;;;;;;;1746701;28;20619;-76
2022/05/03 01:16:16;;;;;;;0.00;0.00;;;;;;;;;;1747009;28;20241;-76
2022/05/03 01:17:11;;;;;;;0.00;0.00;;;;;;;;;;1747647;28;20202;-76
2022/05/03 01:18:07;;;;;;;0.00;0.00;;;;;;;;;;1747045;28;20614;-76
2022/05/03 01:19:06;;;;;;;0.00;0.00;;;;;;;;;;1746964;28;20293;-76
2022/05/03 01:20:03;;;;;;;0.00;0.00;;;;;;;;;;1743418;28;20787;-76
2022/05/03 01:21:09;;;;;;;0.00;0.00;;;;;;;;;;1745372;28;20321;-75
2022/05/03 01:22:18;;;;;;;0.00;0.00;;;;;;;;;;1748112;28;20195;-75
2022/05/03 01:23:21;;;;;;;0.00;0.00;;;;;;;;;;1746937;28;20207;-75
2022/05/03 01:24:21;;;;;;;0.00;0.00;;;;;;;;;;1747606;28;20205;-76
2022/05/03 01:25:19;;;;;;;0.00;0.00;;;;;;;;;;1746596;28;20209;-76
2022/05/03 01:26:26;;;;;;;0.00;0.00;;;;;;;;;;1746452;28;20230;-76
2022/05/03 01:27:37;;;;;;;0.00;0.00;;;;;;;;;;1747195;28;20221;-76
2022/05/03 01:28:32;;;;;;;0.00;0.00;;;;;;;;;;1747690;28;20580;-76
2022/05/03 01:29:32;;;;;;;0.00;0.00;;;;;;;;;;1746923;28;20212;-76
2022/05/03 01:30:25;;;;;;;0.00;0.00;;;;;;;;;;1738626;28;20695;-76
2022/05/03 01:31:18;;;;;;;0.00;0.00;;;;;;;;;;1747232;28;20209;-75
2022/05/03 01:32:09;;;;;;;0.00;0.00;;;;;;;;;;1746861;28;20201;-75
2022/05/03 01:33:07;;;;;;;0.00;0.00;;;;;;;;;;1746985;28;20285;-75
2022/05/03 01:34:00;;;;;;;0.00;0.00;;;;;;;;;;1743685;28;20199;-75
2022/05/03 01:34:54;;;;;;;0.00;0.00;;;;;;;;;;1747483;28;20225;-75
2022/05/03 01:35:46;;;;;;;0.00;0.00;;;;;;;;;;1745319;28;20322;-75
2022/05/03 01:36:48;;;;;;;0.00;0.00;;;;;;;;;;1747929;28;20225;-76
2022/05/03 01:37:48;;;;;;;0.00;0.00;;;;;;;;;;1747161;28;20210;-76
2022/05/03 01:38:50;;;;;;;0.00;0.00;;;;;;;;;;1747206;28;20642;-76
2022/05/03 01:39:47;;;;;;;0.00;0.00;;;;;;;;;;1746218;28;20206;-76
2022/05/03 01:40:45;;;;;;;0.00;0.00;;;;;;;;;;1750428;28;20670;-76
2022/05/03 01:41:42;;;;;;;0.00;0.00;;;;;;;;;;1747686;28;20199;-75
2022/05/03 01:42:46;;;;;;;0.00;0.00;;;;;;;;;;1747159;28;20236;-75
2022/05/03 01:43:50;;;;;;;0.00;0.00;;;;;;;;;;1747708;28;20203;-75
2022/05/03 01:44:51;;;;;;;0.00;0.00;;;;;;;;;;1752674;28;20320;-75
2022/05/03 01:45:43;;;;;;;0.00;0.00;;;;;;;;;;1751842;28;20261;-76
2022/05/03 01:46:36;;;;;;;0.00;0.00;;;;;;;;;;1754779;28;20197;-76
2022/05/03 01:47:36;;;;;;;0.00;0.00;;;;;;;;;;1753755;28;20259;-76
2022/05/03 01:51:09;;;;;;;0.10;0.10;;;;;;;;;;1738500;28;20256;-75
2022/05/03 01:52:33;;;;;;;0.00;0.00;;;;;;;;;;1754326;28;20194;-75
2022/05/03 01:53:31;;;;;;;0.00;0.00;;;;;;;;;;1723822;28;20215;-75
2022/05/03 01:54:37;;;;;;;0.00;0.00;;;;;;;;;;1725647;28;20542;-75
2022/05/03 01:55:40;;;;;;;0.00;0.00;;;;;;;;;;1724704;28;20228;-76
2022/05/03 01:56:36;;;;;;;0.00;0.00;;;;;;;;;;1725191;28;20617;-76
2022/05/03 01:57:31;;;;;;;0.00;0.00;;;;;;;;;;1724349;28;20188;-76
2022/05/03 01:58:29;;;;;;;0.00;0.00;;;;;;;;;;1725914;28;20705;-75
2022/05/03 01:59:31;;;;;;;0.00;0.00;;;;;;;;;;1742633;28;20643;-75
2022/05/03 02:00:27;;;;;;;0.00;0.00;;;;;;;;;;1751753;28;20198;-76
2022/05/03 02:01:25;;;;;;;0.00;0.00;;;;;;;;;;1752674;28;20664;-76
2022/05/03 02:02:21;;;;;;;0.00;0.00;;;;;;;;;;1754115;28;20194;-76
2022/05/03 02:03:19;;;;;;;0.00;0.00;;;;;;;;;;1753644;28;20193;-76
2022/05/03 02:04:18;;;;;;;0.00;0.00;;;;;;;;;;1749431;28;20259;-75
2022/05/03 02:05:18;;;;;;;0.00;0.00;;;;;;;;;;1754761;28;20186;-75
2022/05/03 02:06:10;;;;;;;0.00;0.00;;;;;;;;;;1752582;28;20234;-75
2022/05/03 02:07:07;;;;;;;0.00;0.00;;;;;;;;;;1753667;28;20240;-75
2022/05/03 02:07:59;;;;;;;0.00;0.00;;;;;;;;;;1753922;28;20283;-75
2022/05/03 02:08:54;;;;;;;0.00;0.00;;;;;;;;;;1754377;28;20206;-75
2022/05/03 02:10:01;;;;;;;0.70;0.00;;;;;;;;;;1753149;28;20198;-75
2022/05/03 02:11:04;;;;;;;0.00;0.00;;;;;;;;;;1751724;28;20706;-76
2022/05/03 02:12:03;;;;;;;0.00;0.00;;;;;;;;;;1754724;28;20595;-75
2022/05/03 02:12:59;;;;;;;0.00;0.00;;;;;;;;;;1753230;28;20205;-75
2022/05/03 02:15:09;;;;;;;0.00;0.00;;;;;;;;;;1752117;28;20278;-75
2022/05/03 02:16:08;;;;;;;0.00;0.00;;;;;;;;;;1753031;28;20237;-76
2022/05/03 02:17:02;;;;;;;0.00;0.00;;;;;;;;;;1753467;28;20635;-76
2022/05/03 02:17:54;;;;;;;0.00;0.00;;;;;;;;;;1753661;28;20213;-75
2022/05/03 02:18:54;;;;;;;0.10;0.10;;;;;;;;;;1754645;28;20642;-75
2022/05/03 02:19:57;;;;;;;0.00;0.00;;;;;;;;;;1753859;28;20198;-75
2022/05/03 02:21:04;;;;;;;0.00;0.00;;;;;;;;;;1751993;28;20272;-75
2022/05/03 02:22:00;;;;;;;0.00;0.00;;;;;;;;;;1754461;28;20194;-76
2022/05/03 02:23:01;;;;;;;0.00;0.00;;;;;;;;;;1753275;28;20609;-75
2022/05/03 02:23:59;;;;;;;0.00;0.00;;;;;;;;;;1754006;28;20178;-75
2022/05/03 02:24:56;;;;;;;0.00;0.00;;;;;;;;;;1754422;28;20201;-75
2022/05/03 02:25:56;;;;;;;0.00;0.00;;;;;;;;;;1752051;28;20726;-76
2022/05/03 02:26:51;;;;;;;0.00;0.00;;;;;;;;;;1753705;28;20194;-75
2022/05/03 02:27:47;;;;;;;0.00;0.00;;;;;;;;;;1753475;28;20288;-75
2022/05/03 02:28:40;;;;;;;0.00;0.00;;;;;;;;;;1753931;28;20639;-75
2022/05/03 02:29:34;;;;;;;0.00;0.00;;;;;;;;;;1752250;28;20427;-75
2022/05/03 02:30:28;;;;;;;0.00;0.00;;;;;;;;;;1745400;28;20682;-75
2022/05/03 02:31:24;;;;;;;0.00;0.00;;;;;;;;;;1752976;28;20632;-75
2022/05/03 02:32:17;;;;;;;0.00;0.00;;;;;;;;;;1754280;28;20183;-75
2022/05/03 02:33:10;;;;;;;0.00;0.00;;;;;;;;;;1754039;28;20209;-75
2022/05/03 02:34:05;;;;;;;0.00;0.00;;;;;;;;;;1749497;28;20229;-76
2022/05/03 02:35:01;;;;;;;0.00;0.00;;;;;;;;;;1750086;28;20198;-75
2022/05/03 02:35:57;;;;;;;0.00;0.00;;;;;;;;;;1751021;28;20237;-75
2022/05/03 02:36:53;;;;;;;0.00;0.00;;;;;;;;;;1754181;28;20209;-75
2022/05/03 02:37:49;;;;;;;0.00;0.00;;;;;;;;;;1753580;28;20193;-75
2022/05/03 02:38:43;;;;;;;0.00;0.00;;;;;;;;;;1754401;28;20746;-75
2022/05/03 02:39:39;;;;;;;0.00;0.00;;;;;;;;;;1752305;28;20233;-74
2022/05/03 02:40:31;;;;;;;0.00;0.00;;;;;;;;;;1751617;28;20213;-75
2022/05/03 02:41:24;;;;;;;0.00;0.00;;;;;;;;;;1753184;28;20198;-75
2022/05/03 02:42:16;;;;;;;0.00;0.00;;;;;;;;;;1753514;28;20212;-75
2022/05/03 02:43:09;;;;;;;0.00;0.00;;;;;;;;;;1754142;28;20193;-75
2022/05/03 02:44:02;;;;;;;0.00;0.00;;;;;;;;;;1753858;28;20641;-75
2022/05/03 02:44:56;;;;;;;0.00;0.00;;;;;;;;;;1754433;28;20291;-75
2022/05/03 02:45:50;;;;;;;0.00;0.00;;;;;;;;;;1752169;28;20295;-75
2022/05/03 02:46:48;;;;;;;0.00;0.00;;;;;;;;;;1754256;28;20244;-75
2022/05/03 02:47:44;;;;;;;0.00;0.00;;;;;;;;;;1753516;28;20616;-75
2022/05/03 02:48:39;;;;;;;0.00;0.00;;;;;;;;;;1753660;28;20573;-75
2022/05/03 02:49:39;;;;;;;0.00;0.00;;;;;;;;;;1753785;28;20216;-75
2022/05/03 02:50:32;;;;;;;0.00;0.00;;;;;;;;;;1752078;28;20636;-75
2022/05/03 02:51:28;;;;;;;0.00;0.00;;;;;;;;;;1753671;28;20201;-75
2022/05/03 02:52:25;;;;;;;0.00;0.00;;;;;;;;;;1753896;28;20185;-75
2022/05/03 02:53:21;;;;;;;0.00;0.00;;;;;;;;;;1754356;28;20198;-75
2022/05/03 02:54:23;;;;;;;0.00;0.00;;;;;;;;;;1753101;28;20618;-75
2022/05/03 02:55:19;;;;;;;0.00;0.00;;;;;;;;;;1752992;28;20194;-76
2022/05/03 02:56:17;;;;;;;0.00;0.00;;;;;;;;;;1753016;28;20245;-75
2022/05/03 02:57:16;;;;;;;0.00;0.00;;;;;;;;;;1753802;28;20670;-75
2022/05/03 02:58:13;;;;;;;0.00;0.00;;;;;;;;;;1753797;28;20190;-75
2022/05/03 02:59:11;;;;;;;0.00;0.00;;;;;;;;;;1753525;28;20201;-75
2022/05/03 03:02:36;;;;;;;0.00;0.00;;;;;;;;;;1748641;28;20186;-76
2022/05/03 03:03:45;;;;;;;0.00;0.00;;;;;;;;;;1753869;28;20202;-76
2022/05/03 03:04:38;;;;;;;0.00;0.00;;;;;;;;;;1752296;28;20263;-76
2022/05/03 03:05:30;;;;;;;0.00;0.00;;;;;;;;;;1752316;28;20209;-76
2022/05/03 03:06:23;;;;;;;0.00;0.00;;;;;;;;;;1753521;28;20216;-75
2022/05/03 03:07:18;;;;;;;0.00;0.00;;;;;;;;;;1752781;28;20205;-76
2022/05/03 03:08:13;;;;;;;0.00;0.00;;;;;;;;;;1753627;28;20259;-76
2022/05/03 03:09:06;;;;;;;0.00;0.00;;;;;;;;;;1753425;28;20212;-75
2022/05/03 03:10:04;;;;;;;0.00;0.00;;;;;;;;;;1749941;28;20247;-76
2022/05/03 03:11:01;;;;;;;0.00;0.00;;;;;;;;;;1751801;28;20686;-75
2022/05/03 03:11:55;;;;;;;0.00;0.00;;;;;;;;;;1754322;28;20189;-76
2022/05/03 03:12:51;;;;;;;0.00;0.00;;;;;;;;;;1752764;28;20208;-75
2022/05/03 03:13:52;;;;;;;0.00;0.00;;;;;;;;;;1753304;28;20205;-75
2022/05/03 03:14:45;;;;;;;0.00;0.00;;;;;;;;;;1753569;28;20185;-76
2022/05/03 03:15:40;;;;;;;0.00;0.00;;;;;;;;;;1750792;28;20306;-77
2022/05/03 03:16:32;;;;;;;0.00;0.00;;;;;;;;;;1752310;28;20201;-77
2022/05/03 03:17:28;;;;;;;0.00;0.00;;;;;;;;;;1753603;28;20611;-77
2022/05/03 03:18:23;;;;;;;0.00;0.00;;;;;;;;;;1750690;28;20198;-77
2022/05/03 03:19:20;;;;;;;0.00;0.00;;;;;;;;;;1752916;28;20284;-76
2022/05/03 03:20:13;;;;;;;0.00;0.00;;;;;;;;;;1752385;28;20197;-76
2022/05/03 03:21:06;;;;;;;0.00;0.00;;;;;;;;;;1753094;28;20682;-77
2022/05/03 03:21:59;;;;;;;0.00;0.00;;;;;;;;;;1753972;28;20193;-77
2022/05/03 03:22:51;;;;;;;0.00;0.00;;;;;;;;;;1753422;28;20270;-77
2022/05/03 03:23:43;;;;;;;0.00;0.00;;;;;;;;;;1753697;28;20288;-77
2022/05/03 03:24:35;;;;;;;0.00;0.00;;;;;;;;;;1753308;28;20208;-77
2022/05/03 03:25:27;;;;;;;0.00;0.00;;;;;;;;;;1751747;28;20252;-77
2022/05/03 03:26:19;;;;;;;0.00;0.00;;;;;;;;;;1752733;28;20213;-76
2022/05/03 03:27:12;;;;;;;0.00;0.00;;;;;;;;;;1753753;28;20309;-76
2022/05/03 03:28:04;;;;;;;0.00;0.00;;;;;;;;;;1753102;28;20209;-76
2022/05/03 03:28:59;;;;;;;0.00;0.00;;;;;;;;;;1753772;28;20202;-76
2022/05/03 03:29:55;;;;;;;0.00;0.00;;;;;;;;;;1753280;28;20471;-76
2022/05/03 03:30:50;;;;;;;0.00;0.00;;;;;;;;;;1752216;28;20237;-77
2022/05/03 03:31:43;;;;;;;0.05;0.05;;;;;;;;;;1750653;28;20208;-77
2022/05/03 03:32:37;;;;;;;0.00;0.00;;;;;;;;;;1752962;28;20220;-76
2022/05/03 03:33:32;;;;;;;0.00;0.00;;;;;;;;;;1753601;28;20220;-76
2022/05/03 03:34:24;;;;;;;0.00;0.00;;;;;;;;;;1750252;28;20216;-76
2022/05/03 03:35:17;;;;;;;0.00;0.00;;;;;;;;;;1751906;28;20223;-76
2022/05/03 03:36:10;;;;;;;0.00;0.00;;;;;;;;;;1753417;28;20952;-76
2022/05/03 03:37:02;;;;;;;0.00;0.00;;;;;;;;;;1753710;28;20197;-76
2022/05/03 03:37:57;;;;;;;0.00;0.00;;;;;;;;;;1752956;28;20685;-76
2022/05/03 03:38:49;;;;;;;0.00;0.00;;;;;;;;;;1746456;28;20217;-76
2022/05/03 03:39:41;;;;;;;0.00;0.00;;;;;;;;;;1753408;28;20216;-76
2022/05/03 03:40:32;;;;;;;0.00;0.00;;;;;;;;;;1756213;28;20243;-76
2022/05/03 03:41:25;;;;;;;0.00;0.00;;;;;;;;;;1753977;28;20194;-76
2022/05/03 03:42:16;;;;;;;0.00;0.00;;;;;;;;;;1753840;28;20201;-76
2022/05/03 03:43:08;;;;;;;0.00;0.00;;;;;;;;;;1753504;28;20193;-76
2022/05/03 03:44:03;;;;;;;0.00;0.00;;;;;;;;;;1753444;28;20634;-75
2022/05/03 03:44:56;;;;;;;0.00;0.00;;;;;;;;;;1752568;28;20578;-75
2022/05/03 03:45:47;;;;;;;0.00;0.00;;;;;;;;;;1751064;28;20252;-75
2022/05/03 03:46:40;;;;;;;0.00;0.00;;;;;;;;;;1753869;28;20639;-75
2022/05/03 03:47:31;;;;;;;0.00;0.00;;;;;;;;;;1752925;28;20205;-75
2022/05/03 03:48:23;;;;;;;0.00;0.00;;;;;;;;;;1754028;28;20197;-75
2022/05/03 03:49:16;;;;;;;0.00;0.00;;;;;;;;;;1753273;28;20674;-75
2022/05/03 03:50:09;;;;;;;0.00;0.00;;;;;;;;;;1753907;28;20348;-75
2022/05/03 03:51:00;;;;;;;0.00;0.00;;;;;;;;;;1750291;28;20548;-75
2022/05/03 03:51:52;;;;;;;0.00;0.00;;;;;;;;;;1753920;28;20201;-75
2022/05/03 03:52:44;;;;;;;0.00;0.00;;;;;;;;;;1753227;28;20206;-76
2022/05/03 03:53:36;;;;;;;0.00;0.00;;;;;;;;;;1754207;28;20967;-76
2022/05/03 03:54:28;;;;;;;0.00;0.00;;;;;;;;;;1753393;28;20224;-76
2022/05/03 03:55:21;;;;;;;0.00;0.00;;;;;;;;;;1751617;28;20240;-76
2022/05/03 03:56:12;;;;;;;0.00;0.00;;;;;;;;;;1753572;28;20217;-75
2022/05/03 03:57:06;;;;;;;0.00;0.00;;;;;;;;;;1752407;28;20194;-75
2022/05/03 03:57:58;;;;;;;0.00;0.00;;;;;;;;;;1753179;28;20198;-75
2022/05/03 03:58:50;;;;;;;0.00;0.00;;;;;;;;;;1753998;28;20213;-75
2022/05/03 03:59:42;;;;;;;0.00;0.00;;;;;;;;;;1752862;28;20221;-75
2022/05/03 04:00:34;;;;;;;0.00;0.00;;;;;;;;;;1751987;28;20236;-75
2022/05/03 04:01:25;;;;;;;0.00;0.00;;;;;;;;;;1752408;28;20635;-75
2022/05/03 04:02:19;;;;;;;0.00;0.00;;;;;;;;;;1753645;28;20205;-75
2022/05/03 04:03:10;;;;;;;0.00;0.00;;;;;;;;;;1752874;28;20232;-75
2022/05/03 04:04:05;;;;;;;0.00;0.00;;;;;;;;;;1749035;28;20610;-75
2022/05/03 04:04:58;;;;;;;0.00;0.00;;;;;;;;;;1753689;28;20654;-75
2022/05/03 04:05:50;;;;;;;0.00;0.00;;;;;;;;;;1751431;28;20297;-75
2022/05/03 04:06:42;;;;;;;0.00;0.00;;;;;;;;;;1754020;28;20660;-75
2022/05/03 04:07:34;;;;;;;0.00;0.00;;;;;;;;;;1752355;28;20516;-75
2022/05/03 04:08:26;;;;;;;0.00;0.00;;;;;;;;;;1753768;28;20216;-75
2022/05/03 04:09:18;;;;;;;0.00;0.00;;;;;;;;;;1752959;28;20210;-75
2022/05/03 04:10:09;;;;;;;0.00;0.00;;;;;;;;;;1752802;28;20688;-75
2022/05/03 04:11:14;;;;;;;0.00;0.00;;;;;;;;;;1751381;28;20256;-75
2022/05/03 04:12:05;;;;;;;0.00;0.00;;;;;;;;;;1746816;28;20214;-75
2022/05/03 04:12:58;;;;;;;0.00;0.00;;;;;;;;;;1751918;28;20205;-76
2022/05/03 04:13:49;;;;;;;0.00;0.00;;;;;;;;;;1753668;28;20547;-76
2022/05/03 04:14:42;;;;;;;0.00;0.00;;;;;;;;;;1753261;28;20302;-76
2022/05/03 04:15:34;;;;;;;0.00;0.00;;;;;;;;;;1751857;28;20561;-76
2022/05/03 04:16:26;;;;;;;0.00;0.00;;;;;;;;;;1752522;28;20272;-76
2022/05/03 04:17:17;;;;;;;0.00;0.00;;;;;;;;;;1753195;28;20476;-76
2022/05/03 04:18:10;;;;;;;0.00;0.00;;;;;;;;;;1752777;28;20611;-76
2022/05/03 04:19:01;;;;;;;0.00;0.00;;;;;;;;;;1753359;28;20278;-76
2022/05/03 04:19:53;;;;;;;0.00;0.00;;;;;;;;;;1753111;28;20212;-76
2022/05/03 04:20:46;;;;;;;0.00;0.00;;;;;;;;;;1751393;28;20228;-76
2022/05/03 04:21:38;;;;;;;0.00;0.00;;;;;;;;;;1753246;28;20216;-76
2022/05/03 04:22:30;;;;;;;0.00;0.00;;;;;;;;;;1752070;28;20214;-76
2022/05/03 04:23:22;;;;;;;0.00;0.00;;;;;;;;;;1753336;28;20201;-76
2022/05/03 04:24:14;;;;;;;0.00;0.00;;;;;;;;;;1753316;28;20206;-76
2022/05/03 04:25:07;;;;;;;0.00;0.00;;;;;;;;;;1753897;28;20204;-76
2022/05/03 04:25:58;;;;;;;0.00;0.00;;;;;;;;;;1751314;28;20233;-76
2022/05/03 04:26:50;;;;;;;0.00;0.00;;;;;;;;;;1753611;28;20559;-76
2022/05/03 04:27:41;;;;;;;0.00;0.00;;;;;;;;;;1753259;28;20212;-75
2022/05/03 04:28:33;;;;;;;0.00;0.00;;;;;;;;;;1753083;28;20542;-76
2022/05/03 04:29:25;;;;;;;0.00;0.00;;;;;;;;;;1752251;28;20213;-76
2022/05/03 04:30:17;;;;;;;0.00;0.00;;;;;;;;;;1751122;28;20193;-76
2022/05/03 04:31:08;;;;;;;0.00;0.00;;;;;;;;;;1753633;28;20201;-76
2022/05/03 04:32:01;;;;;;;0.00;0.00;;;;;;;;;;1753745;28;20574;-76
2022/05/03 04:32:55;;;;;;;0.10;0.10;;;;;;;;;;1752811;28;20214;-76
2022/05/03 04:33:47;;;;;;;0.00;0.00;;;;;;;;;;1747140;28;20608;-76
2022/05/03 04:34:38;;;;;;;0.00;0.00;;;;;;;;;;1751640;28;20652;-76
2022/05/03 04:35:30;;;;;;;0.00;0.00;;;;;;;;;;1751602;28;20205;-76
2022/05/03 04:36:23;;;;;;;0.00;0.00;;;;;;;;;;1752499;28;20205;-76
2022/05/03 04:37:15;;;;;;;0.10;0.10;;;;;;;;;;1753631;28;20539;-76
2022/05/03 04:38:06;;;;;;;0.00;0.00;;;;;;;;;;1753289;28;20216;-76
2022/05/03 04:38:58;;;;;;;0.00;0.00;;;;;;;;;;1753341;28;20194;-76
2022/05/03 04:39:50;;;;;;;0.00;0.00;;;;;;;;;;1752718;28;20217;-76
2022/05/03 04:40:42;;;;;;;0.10;0.10;;;;;;;;;;1756119;28;20229;-76
2022/05/03 04:41:33;;;;;;;0.10;0.10;;;;;;;;;;1752701;28;20202;-76
2022/05/03 04:42:25;;;;;;;0.00;0.00;;;;;;;;;;1753309;28;20673;-76
2022/05/03 04:43:17;;;;;;;0.00;0.00;;;;;;;;;;1753347;28;20663;-76
2022/05/03 04:44:09;;;;;;;0.00;0.00;;;;;;;;;;1753497;28;20535;-76
2022/05/03 04:45:00;;;;;;;0.00;0.00;;;;;;;;;;1753555;28;20227;-76
2022/05/03 04:45:52;;;;;;;0.00;0.00;;;;;;;;;;1751375;28;20251;-76
2022/05/03 04:46:43;;;;;;;0.00;0.00;;;;;;;;;;1753702;28;20212;-76
2022/05/03 04:47:35;;;;;;;0.00;0.00;;;;;;;;;;1752467;28;20209;-76
2022/05/03 04:48:27;;;;;;;0.00;0.00;;;;;;;;;;1753274;28;20646;-76
2022/05/03 04:49:19;;;;;;;0.00;0.00;;;;;;;;;;1753124;28;20201;-76
2022/05/03 04:50:11;;;;;;;0.00;0.00;;;;;;;;;;1753884;28;20206;-76
2022/05/03 04:51:04;;;;;;;0.00;0.00;;;;;;;;;;1752840;28;20237;-76
2022/05/03 04:51:56;;;;;;;0.00;0.00;;;;;;;;;;1755143;28;20201;-76
2022/05/03 04:52:49;;;;;;;0.00;0.00;;;;;;;;;;1754455;28;20547;-76
2022/05/03 04:53:40;;;;;;;0.00;0.00;;;;;;;;;;1754491;28;20578;-75
2022/05/03 04:54:32;;;;;;;0.00;0.00;;;;;;;;;;1753789;28;20703;-76
2022/05/03 04:55:25;;;;;;;0.00;0.00;;;;;;;;;;1742673;28;20213;-75
2022/05/03 04:56:18;;;;;;;0.00;0.00;;;;;;;;;;1750160;28;20515;-75
2022/05/03 04:57:09;;;;;;;0.00;0.00;;;;;;;;;;1753463;28;20245;-75
2022/05/03 04:58:02;;;;;;;0.00;0.00;;;;;;;;;;1754030;28;20212;-75
2022/05/03 04:58:55;;;;;;;0.00;0.00;;;;;;;;;;1754980;28;20675;-75
2022/05/03 04:59:47;;;;;;;0.00;0.00;;;;;;;;;;1754045;28;20558;-75
2022/05/03 05:00:38;;;;;;;0.00;0.00;;;;;;;;;;1752179;28;20267;-76
2022/05/03 05:01:30;;;;;;;0.00;0.00;;;;;;;;;;1752633;28;20202;-76
2022/05/03 05:02:22;;;;;;;0.00;0.00;;;;;;;;;;1754446;28;20693;-76
2022/05/03 05:03:14;;;;;;;0.00;0.00;;;;;;;;;;1754964;28;20557;-76
2022/05/03 05:04:05;;;;;;;0.00;0.00;;;;;;;;;;1750491;28;20213;-75
2022/05/03 05:04:57;;;;;;;0.00;0.00;;;;;;;;;;1754767;28;20201;-75
2022/05/03 05:05:48;;;;;;;0.00;0.00;;;;;;;;;;1752359;28;20252;-76
2022/05/03 05:06:41;;;;;;;0.00;0.00;;;;;;;;;;1754100;28;20647;-75
2022/05/03 05:07:33;;;;;;;0.00;0.00;;;;;;;;;;1753668;28;20209;-75
2022/05/03 05:08:25;;;;;;;0.00;0.00;;;;;;;;;;1754869;28;20205;-75
2022/05/03 05:09:17;;;;;;;0.05;0.05;;;;;;;;;;1754840;28;20673;-76
2022/05/03 05:10:28;;;;;;;0.00;0.00;;;;;;;;;;1754524;28;20205;-75
2022/05/03 05:11:19;;;;;;;0.00;0.00;;;;;;;;;;1752611;28;20233;-77
2022/05/03 05:12:12;;;;;;;0.00;0.00;;;;;;;;;;1754779;28;20251;-77
2022/05/03 05:13:03;;;;;;;0.00;0.00;;;;;;;;;;1753524;28;20217;-77
2022/05/03 05:13:55;;;;;;;0.00;0.00;;;;;;;;;;1754492;28;20221;-77
2022/05/03 05:14:46;;;;;;;0.00;0.00;;;;;;;;;;1754623;28;20213;-77
2022/05/03 05:15:38;;;;;;;0.00;0.00;;;;;;;;;;1753047;28;20233;-77
2022/05/03 05:16:29;;;;;;;0.00;0.00;;;;;;;;;;1754169;28;20224;-76
2022/05/03 05:17:22;;;;;;;0.00;0.00;;;;;;;;;;1754239;28;20205;-77
2022/05/03 05:18:14;;;;;;;0.00;0.00;;;;;;;;;;1754301;28;20320;-77
2022/05/03 05:19:06;;;;;;;0.00;0.00;;;;;;;;;;1753932;28;20228;-76
2022/05/03 05:19:58;;;;;;;0.00;0.00;;;;;;;;;;1754266;28;20206;-76
2022/05/03 05:20:50;;;;;;;0.00;0.00;;;;;;;;;;1752567;28;20229;-77
2022/05/03 05:21:41;;;;;;;0.00;0.00;;;;;;;;;;1755184;28;20216;-77
2022/05/03 05:22:34;;;;;;;0.00;0.00;;;;;;;;;;1754228;28;20205;-76
2022/05/03 05:23:26;;;;;;;0.00;0.00;;;;;;;;;;1754699;28;20224;-76
2022/05/03 05:24:18;;;;;;;0.00;0.00;;;;;;;;;;1754110;28;20327;-76
2022/05/03 05:25:09;;;;;;;0.00;0.00;;;;;;;;;;1754176;28;20197;-76
2022/05/03 05:26:02;;;;;;;0.00;0.00;;;;;;;;;;1751717;28;20240;-76
2022/05/03 05:26:53;;;;;;;0.00;0.00;;;;;;;;;;1754232;28;20372;-76
2022/05/03 05:27:46;;;;;;;0.00;0.00;;;;;;;;;;1754024;28;20202;-76
2022/05/03 05:28:37;;;;;;;0.00;0.00;;;;;;;;;;1754156;28;20202;-76
2022/05/03 05:29:29;;;;;;;0.00;0.00;;;;;;;;;;1753902;28;20263;-76
2022/05/03 05:30:20;;;;;;;0.00;0.00;;;;;;;;;;1752326;28;20206;-76
2022/05/03 05:31:13;;;;;;;0.00;0.00;;;;;;;;;;1753915;28;20238;-77
2022/05/03 05:32:04;;;;;;;0.00;0.00;;;;;;;;;;1754109;28;20212;-77
2022/05/03 05:32:56;;;;;;;0.00;0.00;;;;;;;;;;1753737;28;20205;-77
2022/05/03 05:33:48;;;;;;;0.00;0.00;;;;;;;;;;1751755;28;20231;-77
2022/05/03 05:34:40;;;;;;;0.00;0.00;;;;;;;;;;1753648;28;20503;-77